Time;durP1;ratioP1;P1;durP2;ratioP2;P2;SDS_P1;SDS_P2;PMS_P1;PMS_P2;Temp;Humidity;BMP_temperature;BMP_pressure;BME280_temperature;BME280_humidity;BME280_pressure;Samples;Min_cycle;Max_cycle;Signal;HPM_P1;HPM_P2
2021/07/17 00:01:07;;;;;;;;;;;17.30;99.90;;;;;;4952329;28;19965;-83
2021/07/17 00:03:32;;;;;;;;;;;17.40;99.90;;;;;;4938419;29;20002;-83
2021/07/17 00:05:58;;;;;;;;;;;17.30;99.90;;;;;;4933941;29;19958;-83
2021/07/17 00:08:23;;;;;;;;;;;17.30;99.90;;;;;;4918568;29;19937;-83
2021/07/17 00:10:50;;;;;;;;;;;17.30;99.90;;;;;;4919842;29;19911;-83
2021/07/17 00:13:16;;;;;;;;;;;17.30;99.90;;;;;;4919195;29;20341;-84
2021/07/17 00:15:41;;;;;;;;;;;17.30;99.90;;;;;;4927849;29;20362;-83
2021/07/17 00:18:07;;;;;;;;;;;17.40;99.90;;;;;;4918340;29;19907;-83
2021/07/17 00:20:33;;;;;;;;;;;17.30;99.90;;;;;;4903226;29;19911;-83
2021/07/17 00:22:59;;;;;;;;;;;17.30;99.90;;;;;;4904592;29;19980;-83
2021/07/17 00:25:24;;;;;;;;;;;17.30;99.90;;;;;;4922493;29;20341;-83
2021/07/17 00:27:50;;;;;;;;;;;17.30;99.90;;;;;;4905524;29;19913;-82
2021/07/17 00:30:16;;;;;;;;;;;17.30;99.90;;;;;;4903797;29;19915;-84
2021/07/17 00:32:42;;;;;;;;;;;17.30;99.90;;;;;;4972372;23;19988;-83
2021/07/17 00:35:08;;;;;;;;;;;17.30;99.90;;;;;;5000120;28;20410;-83
2021/07/17 00:37:34;;;;;;;;;;;17.30;99.90;;;;;;4997750;28;19913;-82
2021/07/17 00:39:59;;;;;;;;;;;17.30;99.90;;;;;;4981303;28;19921;-83
2021/07/17 00:42:25;;;;;;;;;;;17.20;99.90;;;;;;4964980;28;20296;-82
2021/07/17 00:44:51;;;;;;;;;;;17.30;99.90;;;;;;4960098;28;19910;-82
2021/07/17 00:47:17;;;;;;;;;;;17.20;99.90;;;;;;4945019;28;20476;-83
2021/07/17 00:49:42;;;;;;;;;;;17.20;99.90;;;;;;4942165;29;19998;-83
2021/07/17 00:52:09;;;;;;;;;;;17.20;99.90;;;;;;4942191;29;19934;-82
2021/07/17 00:54:34;;;;;;;;;;;17.20;99.90;;;;;;4941912;29;19911;-83
2021/07/17 00:57:01;;;;;;;;;;;17.20;99.90;;;;;;4937268;28;19907;-82
2021/07/17 00:59:28;;;;;;;;;;;17.20;99.90;;;;;;4960395;28;19910;-83
2021/07/17 01:01:55;;;;;;;;;;;17.10;99.90;;;;;;4961080;28;20405;-82
2021/07/17 01:04:21;;;;;;;;;;;17.10;99.90;;;;;;4953783;28;19917;-82
2021/07/17 01:06:47;;;;;;;;;;;17.10;99.90;;;;;;4952217;29;19906;-83
2021/07/17 01:09:12;;;;;;;;;;;17.00;99.90;;;;;;4958201;29;19906;-81
2021/07/17 01:11:38;;;;;;;;;;;17.00;99.90;;;;;;4959026;29;19907;-82
2021/07/17 01:14:03;;;;;;;;;;;17.00;99.90;;;;;;4954778;29;19938;-81
2021/07/17 01:16:29;;;;;;;;;;;17.00;99.90;;;;;;4940862;29;19911;-82
2021/07/17 01:18:55;;;;;;;;;;;17.00;99.90;;;;;;4942258;29;19907;-82
2021/07/17 01:21:21;;;;;;;;;;;17.00;99.90;;;;;;4942179;29;19983;-82
2021/07/17 01:23:46;;;;;;;;;;;17.00;99.90;;;;;;4944580;28;20037;-83
2021/07/17 01:26:13;;;;;;;;;;;17.00;99.90;;;;;;4944321;29;19907;-82
2021/07/17 01:28:39;;;;;;;;;;;17.00;99.90;;;;;;4944374;29;19912;-83
2021/07/17 01:31:04;;;;;;;;;;;17.00;99.90;;;;;;4943768;28;19913;-83
2021/07/17 01:33:30;;;;;;;;;;;17.00;99.90;;;;;;4951484;29;19915;-82
2021/07/17 01:35:55;;;;;;;;;;;17.00;99.90;;;;;;4944154;29;19907;-83
2021/07/17 01:38:21;;;;;;;;;;;17.00;99.90;;;;;;4970035;28;19956;-82
2021/07/17 01:40:50;;;;;;;;;;;17.00;99.90;;;;;;4972337;28;19914;-82
2021/07/17 01:43:15;;;;;;;;;;;16.90;99.90;;;;;;4969651;28;19913;-82
2021/07/17 01:45:41;;;;;;;;;;;16.90;99.90;;;;;;4960024;28;20412;-83
2021/07/17 01:48:07;;;;;;;;;;;16.90;99.90;;;;;;4960171;28;19911;-83
2021/07/17 01:50:33;;;;;;;;;;;16.90;99.90;;;;;;4948414;28;19977;-83
2021/07/17 01:52:59;;;;;;;;;;;16.90;99.90;;;;;;4959987;28;19913;-82
2021/07/17 01:55:24;;;;;;;;;;;16.90;99.90;;;;;;4942666;29;19993;-83
2021/07/17 01:57:50;;;;;;;;;;;16.90;99.90;;;;;;4942201;29;20388;-82
2021/07/17 02:00:17;;;;;;;;;;;16.90;99.90;;;;;;4960047;29;19914;-83
2021/07/17 02:02:43;;;;;;;;;;;17.00;99.90;;;;;;4953184;29;19981;-83
2021/07/17 02:05:08;;;;;;;;;;;16.90;99.90;;;;;;4940374;29;19910;-83
2021/07/17 02:07:34;;;;;;;;;;;17.00;99.90;;;;;;4959797;28;19906;-81
2021/07/17 02:10:01;;;;;;;;;;;16.90;99.90;;;;;;4957964;28;19910;-83
2021/07/17 02:12:26;;;;;;;;;;;17.00;99.90;;;;;;4959103;29;19997;-82
2021/07/17 02:14:52;;;;;;;;;;;17.00;99.90;;;;;;4959411;28;19953;-83
2021/07/17 02:17:18;;;;;;;;;;;17.00;99.90;;;;;;4959034;28;20009;-83
2021/07/17 02:19:43;;;;;;;;;;;17.00;99.90;;;;;;4957712;28;20395;-83
2021/07/17 02:22:09;;;;;;;;;;;16.90;99.90;;;;;;4959158;29;19914;-83
2021/07/17 02:24:34;;;;;;;;;;;16.90;99.90;;;;;;4952599;29;20330;-83
2021/07/17 02:27:00;;;;;;;;;;;16.90;99.90;;;;;;4958111;28;19949;-83
2021/07/17 02:29:25;;;;;;;;;;;16.90;99.90;;;;;;4959573;28;19914;-82
2021/07/17 02:31:51;;;;;;;;;;;16.90;99.90;;;;;;4956630;28;19911;-83
2021/07/17 02:34:16;;;;;;;;;;;16.90;99.90;;;;;;4948302;29;20448;-83
2021/07/17 02:36:42;;;;;;;;;;;16.90;99.90;;;;;;4946123;29;19956;-83
2021/07/17 02:39:08;;;;;;;;;;;16.90;99.90;;;;;;4945168;28;20440;-83
2021/07/17 02:41:34;;;;;;;;;;;16.90;99.90;;;;;;4941030;28;19932;-82
2021/07/17 02:44:00;;;;;;;;;;;16.80;99.90;;;;;;4957110;28;19942;-83
2021/07/17 02:46:25;;;;;;;;;;;16.90;99.90;;;;;;4926639;29;19910;-83
2021/07/17 02:48:51;;;;;;;;;;;16.90;99.90;;;;;;4939996;29;19941;-82
2021/07/17 02:51:16;;;;;;;;;;;16.80;99.90;;;;;;4959926;29;19906;-83
2021/07/17 02:53:42;;;;;;;;;;;16.90;99.90;;;;;;4953923;28;19926;-83
2021/07/17 02:56:07;;;;;;;;;;;16.90;99.90;;;;;;4943077;28;19910;-83
2021/07/17 02:58:33;;;;;;;;;;;16.80;99.90;;;;;;4942059;29;19965;-83
2021/07/17 03:00:58;;;;;;;;;;;16.80;99.90;;;;;;4941820;29;20301;-83
2021/07/17 03:03:24;;;;;;;;;;;16.80;99.90;;;;;;4940301;28;19911;-83
2021/07/17 03:05:50;;;;;;;;;;;16.80;99.90;;;;;;4938772;29;20013;-82
2021/07/17 03:08:19;;;;;;;;;;;16.80;99.90;;;;;;4939629;29;19918;-83
2021/07/17 03:10:45;;;;;;;;;;;16.90;99.90;;;;;;4939928;29;19914;-82
2021/07/17 03:13:11;;;;;;;;;;;16.80;99.90;;;;;;4940311;29;19907;-83
2021/07/17 03:15:37;;;;;;;;;;;16.80;99.90;;;;;;4939549;29;19911;-83
2021/07/17 03:18:02;;;;;;;;;;;16.80;99.90;;;;;;4950389;29;19949;-83
2021/07/17 03:20:28;;;;;;;;;;;16.80;99.90;;;;;;4940590;29;19910;-82
2021/07/17 03:22:53;;;;;;;;;;;16.70;99.90;;;;;;4949156;29;19911;-83
2021/07/17 03:25:19;;;;;;;;;;;16.80;99.90;;;;;;4945072;29;19972;-81
2021/07/17 03:27:44;;;;;;;;;;;16.70;99.90;;;;;;4956764;28;19984;-83
2021/07/17 03:30:10;;;;;;;;;;;16.70;99.90;;;;;;4963228;28;19957;-81
2021/07/17 03:32:36;;;;;;;;;;;16.70;99.90;;;;;;4944584;29;19950;-82
2021/07/17 03:35:02;;;;;;;;;;;16.70;99.90;;;;;;4954101;29;19921;-83
2021/07/17 03:37:28;;;;;;;;;;;16.70;99.90;;;;;;4941431;28;19914;-82
2021/07/17 03:39:53;;;;;;;;;;;16.70;99.90;;;;;;4977429;28;19918;-83
2021/07/17 03:42:19;;;;;;;;;;;16.70;99.90;;;;;;4976888;28;19913;-82
2021/07/17 03:44:45;;;;;;;;;;;16.70;99.90;;;;;;4925812;29;20355;-82
2021/07/17 03:47:10;;;;;;;;;;;16.80;99.90;;;;;;4939095;29;19914;-81
2021/07/17 03:49:36;;;;;;;;;;;16.70;99.90;;;;;;4921966;29;20402;-83
2021/07/17 03:52:02;;;;;;;;;;;16.70;99.90;;;;;;4952978;28;19910;-83
2021/07/17 03:54:27;;;;;;;;;;;16.70;99.90;;;;;;4958946;29;19917;-80
2021/07/17 03:56:53;;;;;;;;;;;16.70;99.90;;;;;;4922120;29;19921;-81
2021/07/17 03:59:18;;;;;;;;;;;16.80;99.90;;;;;;4946061;29;19969;-82
2021/07/17 04:01:44;;;;;;;;;;;16.70;99.90;;;;;;4954190;28;19917;-82
2021/07/17 04:04:12;;;;;;;;;;;16.70;99.90;;;;;;4962371;28;19907;-81
2021/07/17 04:06:38;;;;;;;;;;;16.70;99.90;;;;;;4961822;28;20373;-81
2021/07/17 04:09:04;;;;;;;;;;;16.70;99.90;;;;;;4942671;29;19965;-82
2021/07/17 04:11:29;;;;;;;;;;;16.70;99.90;;;;;;4937389;29;19957;-80
2021/07/17 04:13:55;;;;;;;;;;;16.70;99.90;;;;;;4928921;29;20365;-82
2021/07/17 04:16:20;;;;;;;;;;;16.70;99.90;;;;;;4955687;29;19912;-82
2021/07/17 04:18:46;;;;;;;;;;;16.70;99.90;;;;;;4961395;28;19913;-81
2021/07/17 04:21:12;;;;;;;;;;;16.70;99.90;;;;;;4960614;29;20404;-80
2021/07/17 04:23:38;;;;;;;;;;;16.70;99.90;;;;;;4959518;29;19906;-80
2021/07/17 04:26:04;;;;;;;;;;;16.70;99.90;;;;;;4947603;29;20365;-80
2021/07/17 04:28:30;;;;;;;;;;;16.70;99.90;;;;;;4939392;29;20253;-81
2021/07/17 04:30:55;;;;;;;;;;;16.70;99.90;;;;;;4939340;29;19921;-81
2021/07/17 04:33:21;;;;;;;;;;;16.80;99.90;;;;;;4939495;29;19914;-81
2021/07/17 04:35:46;;;;;;;;;;;16.70;99.90;;;;;;4956845;29;19912;-81
2021/07/17 04:38:12;;;;;;;;;;;16.80;99.90;;;;;;4963094;28;19912;-80
2021/07/17 04:40:37;;;;;;;;;;;16.70;99.90;;;;;;4970781;28;20388;-80
2021/07/17 04:43:03;;;;;;;;;;;16.70;99.90;;;;;;4956859;28;19966;-80
2021/07/17 04:45:28;;;;;;;;;;;16.80;99.90;;;;;;4958033;29;19910;-81
2021/07/17 04:47:54;;;;;;;;;;;16.80;99.90;;;;;;4940922;28;19907;-80
2021/07/17 04:50:19;;;;;;;;;;;16.70;99.90;;;;;;4939205;29;19977;-82
2021/07/17 04:52:45;;;;;;;;;;;16.70;99.90;;;;;;4957432;29;20001;-81
2021/07/17 04:55:10;;;;;;;;;;;16.70;99.90;;;;;;4951549;29;21115;-81
2021/07/17 04:57:36;;;;;;;;;;;16.80;99.90;;;;;;4938604;29;19911;-81
2021/07/17 05:00:02;;;;;;;;;;;16.80;99.90;;;;;;4937763;29;19917;-81
2021/07/17 05:02:27;;;;;;;;;;;16.80;99.90;;;;;;4939122;29;20285;-81
2021/07/17 05:04:53;;;;;;;;;;;16.80;99.90;;;;;;4940834;28;19964;-81
2021/07/17 05:07:18;;;;;;;;;;;16.80;99.90;;;;;;4940276;28;20276;-81
2021/07/17 05:09:44;;;;;;;;;;;16.80;99.90;;;;;;4939570;29;20354;-81
2021/07/17 05:12:09;;;;;;;;;;;16.80;99.90;;;;;;4938470;28;19911;-81
2021/07/17 05:14:35;;;;;;;;;;;16.80;99.90;;;;;;4945478;28;20004;-80
2021/07/17 05:17:00;;;;;;;;;;;16.80;99.90;;;;;;4965686;28;19910;-81
2021/07/17 05:19:26;;;;;;;;;;;16.80;99.90;;;;;;4962330;28;19910;-82
2021/07/17 05:21:51;;;;;;;;;;;16.80;99.90;;;;;;4958109;28;20016;-81
2021/07/17 05:24:18;;;;;;;;;;;16.80;99.90;;;;;;4950062;28;19919;-82
2021/07/17 05:26:44;;;;;;;;;;;16.90;99.90;;;;;;4939451;29;20010;-82
2021/07/17 05:29:09;;;;;;;;;;;16.90;99.90;;;;;;4937861;29;19946;-82
2021/07/17 05:31:35;;;;;;;;;;;17.00;99.90;;;;;;4945687;29;19914;-81
2021/07/17 05:34:00;;;;;;;;;;;16.90;99.90;;;;;;4959545;28;19910;-83
2021/07/17 05:36:26;;;;;;;;;;;16.90;99.90;;;;;;4942207;29;19986;-82
2021/07/17 05:38:51;;;;;;;;;;;16.90;99.90;;;;;;4971331;28;20018;-81
2021/07/17 05:41:17;;;;;;;;;;;17.00;99.90;;;;;;4941904;29;19939;-83
2021/07/17 05:43:42;;;;;;;;;;;17.00;99.90;;;;;;4922894;29;19915;-82
2021/07/17 05:46:08;;;;;;;;;;;17.00;99.90;;;;;;4940238;29;19907;-82
2021/07/17 05:48:33;;;;;;;;;;;17.10;99.90;;;;;;4947093;29;20288;-81
2021/07/17 05:50:59;;;;;;;;;;;17.10;99.90;;;;;;4941975;29;19977;-83
2021/07/17 05:53:24;;;;;;;;;;;17.00;99.90;;;;;;4941635;29;19922;-82
2021/07/17 05:55:50;;;;;;;;;;;17.10;99.90;;;;;;4934519;29;20000;-82
2021/07/17 05:58:15;;;;;;;;;;;17.10;99.90;;;;;;4953075;28;19913;-82
2021/07/17 06:00:42;;;;;;;;;;;17.10;99.90;;;;;;4957719;28;19918;-82
2021/07/17 06:03:08;;;;;;;;;;;17.10;99.90;;;;;;4963395;28;20013;-81
2021/07/17 06:05:34;;;;;;;;;;;17.10;99.90;;;;;;4957868;28;19946;-82
2021/07/17 06:07:59;;;;;;;;;;;17.10;99.90;;;;;;4951988;28;20005;-82
2021/07/17 06:10:24;;;;;;;;;;;17.20;99.90;;;;;;4958511;28;19910;-82
2021/07/17 06:12:50;;;;;;;;;;;17.20;99.90;;;;;;4959394;28;19919;-81
2021/07/17 06:15:15;;;;;;;;;;;17.20;99.90;;;;;;4960168;29;19906;-82
2021/07/17 06:17:41;;;;;;;;;;;17.20;99.90;;;;;;4957813;28;19906;-81
2021/07/17 06:20:07;;;;;;;;;;;17.20;99.90;;;;;;4954431;28;19914;-80
2021/07/17 06:22:32;;;;;;;;;;;17.30;99.90;;;;;;4952907;28;19914;-81
2021/07/17 06:24:58;;;;;;;;;;;17.30;99.90;;;;;;4948234;28;19915;-82
2021/07/17 06:27:23;;;;;;;;;;;17.40;99.90;;;;;;4940197;29;19949;-82
2021/07/17 06:29:49;;;;;;;;;;;17.40;99.90;;;;;;4958659;29;19906;-81
2021/07/17 06:32:18;;;;;;;;;;;17.40;99.90;;;;;;4938747;29;19922;-82
2021/07/17 06:34:44;;;;;;;;;;;17.40;99.90;;;;;;4965226;23;19922;-83
2021/07/17 06:37:09;;;;;;;;;;;17.60;99.90;;;;;;4956185;28;19907;-83
2021/07/17 06:39:35;;;;;;;;;;;17.60;99.90;;;;;;4972764;28;19914;-83
2021/07/17 06:42:00;;;;;;;;;;;17.70;99.90;;;;;;4951282;28;20413;-83
2021/07/17 06:44:26;;;;;;;;;;;17.70;99.90;;;;;;4933353;29;19910;-83
2021/07/17 06:46:51;;;;;;;;;;;17.60;99.90;;;;;;4941746;29;20304;-83
2021/07/17 06:49:17;;;;;;;;;;;17.60;99.90;;;;;;4933192;29;19911;-83
2021/07/17 06:51:42;;;;;;;;;;;17.60;99.90;;;;;;4939294;28;19916;-83
2021/07/17 06:54:07;;;;;;;;;;;17.60;99.90;;;;;;4964892;28;19924;-83
2021/07/17 06:56:33;;;;;;;;;;;17.50;99.90;;;;;;4956193;28;21936;-83
2021/07/17 06:58:58;;;;;;;;;;;17.50;99.90;;;;;;4934237;29;19942;-83
2021/07/17 07:01:24;;;;;;;;;;;17.50;99.90;;;;;;4934714;29;19934;-83
2021/07/17 07:03:49;;;;;;;;;;;17.50;99.90;;;;;;4959803;28;19915;-82
2021/07/17 07:06:15;;;;;;;;;;;17.50;99.90;;;;;;4939132;28;20400;-85
2021/07/17 07:08:40;;;;;;;;;;;17.60;99.90;;;;;;4954865;28;19915;-84
2021/07/17 07:11:06;;;;;;;;;;;17.70;99.90;;;;;;4943540;28;19936;-84
2021/07/17 07:13:31;;;;;;;;;;;17.70;99.90;;;;;;4925582;28;19914;-84
2021/07/17 07:15:57;;;;;;;;;;;17.90;99.90;;;;;;4954120;28;20672;-84
2021/07/17 07:18:22;;;;;;;;;;;17.90;99.90;;;;;;4960868;28;19915;-84
2021/07/17 07:20:48;;;;;;;;;;;17.90;99.90;;;;;;4963638;28;19917;-84
2021/07/17 07:23:14;;;;;;;;;;;17.90;99.90;;;;;;4970872;28;20420;-84
2021/07/17 07:25:40;;;;;;;;;;;18.00;99.90;;;;;;4939328;28;19911;-85
2021/07/17 07:28:06;;;;;;;;;;;17.90;99.90;;;;;;4951613;28;19937;-84
2021/07/17 07:30:31;;;;;;;;;;;17.80;99.90;;;;;;4955943;28;20377;-84
2021/07/17 07:33:00;;;;;;;;;;;17.80;99.90;;;;;;4949646;28;19961;-84
2021/07/17 07:35:26;;;;;;;;;;;17.80;99.90;;;;;;4960539;28;19980;-84
2021/07/17 07:37:52;;;;;;;;;;;17.90;99.90;;;;;;4954524;28;19918;-84
2021/07/17 07:40:18;;;;;;;;;;;17.90;99.90;;;;;;4955831;28;20415;-84
2021/07/17 07:42:44;;;;;;;;;;;18.00;99.90;;;;;;4950488;28;19914;-83
2021/07/17 07:45:10;;;;;;;;;;;18.10;99.90;;;;;;4938126;29;19918;-83
2021/07/17 07:47:36;;;;;;;;;;;18.20;99.90;;;;;;4939520;28;19911;-84
2021/07/17 07:50:02;;;;;;;;;;;18.20;99.90;;;;;;4938108;28;19950;-84
2021/07/17 07:52:28;;;;;;;;;;;18.30;99.90;;;;;;4940050;28;19957;-84
2021/07/17 07:54:53;;;;;;;;;;;18.40;99.90;;;;;;4956719;28;19946;-85
2021/07/17 07:57:19;;;;;;;;;;;18.40;99.90;;;;;;4936722;28;19925;-84
2021/07/17 07:59:45;;;;;;;;;;;18.40;99.90;;;;;;4947600;28;19961;-84
2021/07/17 08:02:10;;;;;;;;;;;18.40;99.90;;;;;;4959423;28;19914;-84
2021/07/17 08:04:36;;;;;;;;;;;18.40;99.90;;;;;;4939094;28;19974;-85
2021/07/17 08:07:02;;;;;;;;;;;18.40;99.90;;;;;;4957935;28;19942;-84
2021/07/17 08:09:27;;;;;;;;;;;18.40;99.90;;;;;;4943149;28;20055;-85
2021/07/17 08:11:53;;;;;;;;;;;18.40;99.90;;;;;;4940867;28;19914;-84
2021/07/17 08:14:21;;;;;;;;;;;18.40;99.90;;;;;;4959782;28;20347;-84
2021/07/17 08:16:47;;;;;;;;;;;18.30;99.90;;;;;;4946026;28;20349;-84
2021/07/17 08:19:13;;;;;;;;;;;18.20;99.90;;;;;;4939460;28;19917;-84
2021/07/17 08:21:38;;;;;;;;;;;18.20;99.90;;;;;;4956512;28;19929;-84
2021/07/17 08:24:06;;;;;;;;;;;18.20;99.90;;;;;;4955783;28;19930;-83
2021/07/17 08:26:32;;;;;;;;;;;18.10;99.90;;;;;;4935797;28;19921;-84
2021/07/17 08:28:59;;;;;;;;;;;18.00;99.90;;;;;;4944383;28;19914;-83
2021/07/17 08:31:24;;;;;;;;;;;18.10;99.90;;;;;;4959587;28;19914;-83
2021/07/17 08:33:50;;;;;;;;;;;18.10;99.90;;;;;;4944949;28;19921;-84
2021/07/17 08:36:17;;;;;;;;;;;18.20;99.90;;;;;;4959577;28;20043;-83
2021/07/17 08:38:44;;;;;;;;;;;18.30;99.90;;;;;;4953422;28;20396;-83
2021/07/17 08:41:10;;;;;;;;;;;18.30;99.90;;;;;;4939633;28;20013;-83
2021/07/17 08:43:36;;;;;;;;;;;18.30;99.90;;;;;;4936968;28;19986;-83
2021/07/17 08:46:02;;;;;;;;;;;18.40;99.90;;;;;;4954510;28;19917;-83
2021/07/17 08:48:28;;;;;;;;;;;18.30;99.90;;;;;;4945322;28;19914;-83
2021/07/17 08:50:53;;;;;;;;;;;18.20;99.90;;;;;;4954163;28;19910;-83
2021/07/17 08:53:20;;;;;;;;;;;18.20;99.90;;;;;;4935381;28;19906;-83
2021/07/17 08:55:46;;;;;;;;;;;18.20;99.90;;;;;;4939091;28;19981;-83
2021/07/17 08:58:11;;;;;;;;;;;18.10;99.90;;;;;;4941131;28;19906;-84
2021/07/17 09:00:39;;;;;;;;;;;18.10;99.90;;;;;;4953101;28;19989;-83
2021/07/17 09:03:07;;;;;;;;;;;18.10;99.90;;;;;;4958256;28;19917;-83
2021/07/17 09:05:35;;;;;;;;;;;18.20;99.90;;;;;;4936582;28;19968;-83
2021/07/17 09:08:02;;;;;;;;;;;18.20;99.90;;;;;;4955271;28;19918;-83
2021/07/17 09:10:28;;;;;;;;;;;18.30;99.90;;;;;;4938230;28;19914;-83
2021/07/17 09:13:11;;;;;;;;;;;18.40;99.90;;;;;;4953663;28;19915;-83
2021/07/17 09:15:38;;;;;;;;;;;18.70;99.90;;;;;;4945937;28;19910;-83
2021/07/17 09:18:04;;;;;;;;;;;18.80;99.90;;;;;;4940291;28;20342;-83
2021/07/17 09:20:29;;;;;;;;;;;18.90;99.90;;;;;;4934887;28;19914;-84
2021/07/17 09:23:05;;;;;;;;;;;19.00;99.90;;;;;;4939426;28;20322;-83
2021/07/17 09:25:42;;;;;;;;;;;19.00;99.90;;;;;;4936488;28;19997;-83
2021/07/17 09:28:18;;;;;;;;;;;18.90;99.90;;;;;;4940095;28;19910;-83
2021/07/17 09:30:44;;;;;;;;;;;19.00;99.90;;;;;;4954181;28;19915;-83
2021/07/17 09:33:10;;;;;;;;;;;19.00;99.90;;;;;;4956908;28;19945;-76
2021/07/17 09:35:39;;;;;;;;;;;19.00;99.90;;;;;;4938573;28;20485;-76
2021/07/17 09:38:06;;;;;;;;;;;19.10;99.90;;;;;;4952347;28;19965;-76
2021/07/17 09:40:48;;;;;;;;;;;19.10;99.90;;;;;;4952379;28;19914;-76
2021/07/17 09:43:32;;;;;;;;;;;19.20;99.90;;;;;;4940738;28;19917;-76
2021/07/17 09:45:58;;;;;;;;;;;19.10;99.90;;;;;;4948710;28;20001;-76
2021/07/17 09:48:31;;;;;;;;;;;19.20;99.90;;;;;;4930854;28;20008;-76
2021/07/17 09:50:58;;;;;;;;;;;19.20;99.90;;;;;;4949481;28;19921;-76
2021/07/17 09:53:36;;;;;;;;;;;19.20;99.90;;;;;;4940836;28;19914;-76
2021/07/17 09:56:08;;;;;;;;;;;19.10;99.90;;;;;;4954882;28;20440;-76
2021/07/17 09:58:34;;;;;;;;;;;19.10;99.90;;;;;;4944275;28;19918;-76
2021/07/17 10:01:14;;;;;;;;;;;19.00;99.90;;;;;;4954954;28;20001;-77
2021/07/17 10:03:40;;;;;;;;;;;19.00;99.90;;;;;;4936224;28;19918;-77
2021/07/17 10:06:09;;;;;;;;;;;19.00;99.90;;;;;;4961834;28;19914;-76
2021/07/17 10:08:35;;;;;;;;;;;18.90;99.90;;;;;;4942567;28;19925;-76
2021/07/17 10:11:10;;;;;;;;;;;19.00;99.90;;;;;;4960213;28;19980;-77
2021/07/17 10:13:37;;;;;;;;;;;19.00;99.90;;;;;;4942819;28;20265;-76
2021/07/17 10:16:13;;;;;;;;;;;19.10;99.90;;;;;;4962542;28;19921;-77
2021/07/17 10:18:40;;;;;;;;;;;19.20;99.90;;;;;;4954871;28;19913;-77
2021/07/17 10:21:05;;;;;;;;;;;19.20;99.90;;;;;;4958095;28;19914;-76
2021/07/17 10:23:31;;;;;;;;;;;19.40;99.90;;;;;;4960587;28;19965;-77
2021/07/17 10:25:56;;;;;;;;;;;19.50;99.90;;;;;;4944061;28;19953;-77
2021/07/17 10:28:23;;;;;;;;;;;19.70;99.90;;;;;;4924846;28;20254;-77
2021/07/17 10:30:49;;;;;;;;;;;20.00;99.90;;;;;;4960685;28;19910;-77
2021/07/17 10:33:15;;;;;;;;;;;20.30;99.90;;;;;;4955521;28;20292;-81
2021/07/17 10:35:43;;;;;;;;;;;20.60;99.90;;;;;;4957749;28;20388;-82
2021/07/17 10:38:11;;;;;;;;;;;20.90;99.90;;;;;;4932611;29;20026;-82
2021/07/17 10:40:38;;;;;;;;;;;21.00;99.90;;;;;;4955768;28;19914;-82
2021/07/17 10:43:04;;;;;;;;;;;21.00;99.90;;;;;;4957004;28;20262;-82
2021/07/17 10:45:37;;;;;;;;;;;21.10;99.90;;;;;;4954557;28;20492;-81
2021/07/17 10:48:03;;;;;;;;;;;21.00;99.90;;;;;;4932926;29;19906;-81
2021/07/17 10:50:36;;;;;;;;;;;21.10;99.90;;;;;;4942179;28;20363;-81
2021/07/17 10:53:02;;;;;;;;;;;21.20;99.90;;;;;;4931791;28;19922;-81
2021/07/17 10:55:27;;;;;;;;;;;21.10;99.90;;;;;;4958997;28;19903;-81
2021/07/17 10:57:53;;;;;;;;;;;21.00;99.90;;;;;;4959934;28;20144;-81
2021/07/17 11:00:37;;;;;;;;;;;21.00;99.90;;;;;;4957198;28;19918;-81
2021/07/17 11:03:12;;;;;;;;;;;20.90;99.90;;;;;;4946412;28;19946;-81
2021/07/17 11:05:38;;;;;;;;;;;20.90;99.90;;;;;;4950664;28;19906;-81
2021/07/17 11:08:03;;;;;;;;;;;20.90;99.90;;;;;;4946193;28;19917;-81
2021/07/17 11:10:39;;;;;;;;;;;20.80;99.90;;;;;;4948261;28;20399;-81
2021/07/17 11:13:04;;;;;;;;;;;20.80;99.90;;;;;;4935769;28;19917;-80
2021/07/17 11:15:30;;;;;;;;;;;20.70;99.90;;;;;;4945099;29;20005;-81
2021/07/17 11:17:56;;;;;;;;;;;20.70;99.90;;;;;;4938961;29;20404;-81
2021/07/17 11:20:33;;;;;;;;;;;20.70;99.90;;;;;;4957199;28;19910;-81
2021/07/17 11:23:16;;;;;;;;;;;20.60;99.90;;;;;;4935741;29;19910;-81
2021/07/17 11:25:52;;;;;;;;;;;20.60;99.90;;;;;;4930538;29;19910;-81
2021/07/17 11:28:41;;;;;;;;;;;20.70;99.90;;;;;;4952956;28;19907;-81
2021/07/17 11:31:40;;;;;;;;;;;20.70;99.90;;;;;;4965963;28;20054;-81
2021/07/17 11:34:16;;;;;;;;;;;20.60;99.90;;;;;;4933652;28;19942;-81
2021/07/17 11:36:43;;;;;;;;;;;20.50;99.90;;;;;;4961160;28;19910;-81
2021/07/17 11:39:10;;;;;;;;;;;20.30;99.90;;;;;;4969736;28;20399;-81
2021/07/17 11:41:35;;;;;;;;;;;20.40;99.90;;;;;;4967880;28;19910;-81
2021/07/17 11:44:03;;;;;;;;;;;20.30;99.90;;;;;;4961504;28;19948;-81
2021/07/17 11:46:30;;;;;;;;;;;20.30;99.90;;;;;;4956951;28;19922;-81
2021/07/17 11:49:05;;;;;;;;;;;20.30;99.90;;;;;;4934178;29;19910;-80
2021/07/17 11:51:31;;;;;;;;;;;20.30;99.90;;;;;;4940902;28;20001;-81
2021/07/17 11:53:57;;;;;;;;;;;20.30;99.90;;;;;;4942650;28;19974;-81
2021/07/17 11:56:22;;;;;;;;;;;20.40;99.90;;;;;;4960494;28;19993;-80
2021/07/17 11:59:10;;;;;;;;;;;20.40;99.90;;;;;;4952817;28;19914;-81
2021/07/17 12:01:37;;;;;;;;;;;20.60;99.90;;;;;;4956547;28;19957;-81
2021/07/17 12:04:03;;;;;;;;;;;20.80;99.90;;;;;;4933117;28;20288;-81
2021/07/17 12:06:32;;;;;;;;;;;21.00;99.90;;;;;;4957621;29;19999;-82
2021/07/17 12:09:10;;;;;;;;;;;21.00;99.90;;;;;;4957668;28;19969;-81
2021/07/17 12:11:36;;;;;;;;;;;20.90;99.90;;;;;;4958818;28;19937;-80
2021/07/17 12:14:16;;;;;;;;;;;20.90;99.90;;;;;;4957496;29;19910;-81
2021/07/17 12:16:42;;;;;;;;;;;20.90;99.90;;;;;;4958470;29;20341;-80
2021/07/17 12:19:08;;;;;;;;;;;20.90;99.90;;;;;;4962220;28;19953;-81
2021/07/17 12:21:33;;;;;;;;;;;20.90;99.90;;;;;;4948032;29;20496;-81
2021/07/17 12:24:00;;;;;;;;;;;20.90;99.90;;;;;;4952264;29;19953;-80
2021/07/17 12:26:30;;;;;;;;;;;21.20;99.90;;;;;;4966132;28;19906;-81
2021/07/17 12:28:55;;;;;;;;;;;21.40;99.90;;;;;;4935046;29;19987;-81
2021/07/17 12:31:21;;;;;;;;;;;21.60;99.90;;;;;;4942347;28;19926;-81
2021/07/17 12:33:47;;;;;;;;;;;21.80;99.90;;;;;;4963040;28;19910;-83
2021/07/17 12:36:21;;;;;;;;;;;21.80;99.90;;;;;;4937908;28;19910;-83
2021/07/17 12:38:50;;;;;;;;;;;21.80;99.90;;;;;;4941654;29;19906;-84
2021/07/17 12:41:18;;;;;;;;;;;21.80;99.90;;;;;;4939065;29;19910;-83
2021/07/17 12:43:45;;;;;;;;;;;21.90;99.90;;;;;;4949683;28;19958;-83
2021/07/17 12:46:11;;;;;;;;;;;21.90;99.90;;;;;;4957031;29;19911;-82
2021/07/17 12:48:50;;;;;;;;;;;21.80;99.90;;;;;;4944250;28;20603;-83
2021/07/17 12:51:20;;;;;;;;;;;21.70;99.90;;;;;;4953212;28;19911;-83
2021/07/17 12:53:46;;;;;;;;;;;21.70;99.90;;;;;;4936435;29;20281;-83
2021/07/17 12:56:13;;;;;;;;;;;21.60;99.90;;;;;;4918009;29;19917;-83
2021/07/17 12:58:39;;;;;;;;;;;21.50;99.90;;;;;;4963167;28;19914;-83
2021/07/17 13:01:05;;;;;;;;;;;21.50;99.90;;;;;;4952759;28;19922;-83
2021/07/17 13:03:32;;;;;;;;;;;21.50;99.90;;;;;;4943861;28;19986;-83
2021/07/17 13:05:58;;;;;;;;;;;21.50;99.90;;;;;;4949085;28;19929;-83
2021/07/17 13:08:25;;;;;;;;;;;21.30;99.90;;;;;;4973907;28;20256;-83
2021/07/17 13:10:52;;;;;;;;;;;21.40;99.90;;;;;;4938823;28;19911;-78
2021/07/17 13:13:24;;;;;;;;;;;21.40;99.90;;;;;;4960925;28;19994;-79
2021/07/17 13:15:56;;;;;;;;;;;21.40;99.90;;;;;;4961317;28;20065;-78
2021/07/17 13:18:23;;;;;;;;;;;21.40;99.90;;;;;;4960588;28;20006;-78
2021/07/17 13:20:58;;;;;;;;;;;21.50;99.90;;;;;;4952680;28;20053;-79
2021/07/17 13:23:23;;;;;;;;;;;21.70;99.90;;;;;;4977252;28;19910;-79
2021/07/17 13:25:49;;;;;;;;;;;21.70;99.90;;;;;;4955735;29;19917;-79
2021/07/17 13:28:14;;;;;;;;;;;21.60;99.90;;;;;;4964593;28;19917;-79
2021/07/17 13:30:42;;;;;;;;;;;21.70;99.90;;;;;;4975377;28;19965;-78
2021/07/17 13:33:13;;;;;;;;;;;21.80;99.90;;;;;;4957528;28;19916;-79
2021/07/17 13:35:41;;;;;;;;;;;21.90;99.90;;;;;;4958534;28;19914;-79
2021/07/17 13:38:07;;;;;;;;;;;22.00;99.90;;;;;;4955948;28;20621;-79
2021/07/17 13:40:35;;;;;;;;;;;22.20;99.90;;;;;;4956390;28;20010;-78
2021/07/17 13:43:01;;;;;;;;;;;22.40;99.90;;;;;;4938696;29;19914;-79
2021/07/17 13:45:26;;;;;;;;;;;22.50;99.90;;;;;;4956628;29;19906;-78
2021/07/17 13:47:55;;;;;;;;;;;22.60;99.90;;;;;;4941138;29;19914;-79
2021/07/17 13:50:21;;;;;;;;;;;22.80;99.90;;;;;;4920246;29;19950;-79
2021/07/17 13:52:56;;;;;;;;;;;22.80;99.90;;;;;;4935763;29;19914;-79
2021/07/17 13:55:25;;;;;;;;;;;22.90;99.90;;;;;;4935616;29;19968;-83
2021/07/17 13:58:00;;;;;;;;;;;22.90;99.90;;;;;;4932314;29;19951;-84
2021/07/17 14:00:25;;;;;;;;;;;22.80;99.90;;;;;;4918427;29;19915;-84
2021/07/17 14:02:52;;;;;;;;;;;22.60;99.90;;;;;;4935333;29;19910;-84
2021/07/17 14:05:17;;;;;;;;;;;22.40;99.90;;;;;;4934871;29;19911;-84
2021/07/17 14:07:42;;;;;;;;;;;22.20;99.90;;;;;;4935103;29;19929;-83
2021/07/17 14:10:09;;;;;;;;;;;21.90;99.90;;;;;;4935473;28;20372;-83
2021/07/17 14:12:34;;;;;;;;;;;21.80;99.90;;;;;;4918014;29;20486;-84
2021/07/17 14:15:00;;;;;;;;;;;21.70;99.90;;;;;;4935007;29;19962;-84